createdAt,value
2023-09-28T00:00:13.206Z,7.64
2023-09-28T00:01:13.900Z,14.40
2023-09-28T00:02:13.570Z,11.68
2023-09-28T00:03:13.504Z,17.24
2023-09-28T00:04:13.751Z,15.29
2023-09-28T00:05:13.630Z,11.36
2023-09-28T00:06:13.633Z,13.61
2023-09-28T00:07:13.971Z,11.68
2023-09-28T00:08:12.999Z,11.88
2023-09-28T00:09:13.214Z,3.60
2023-09-28T00:10:13.280Z,16.11
2023-09-28T00:11:13.592Z,12.60
2023-09-28T00:12:13.648Z,15.48
2023-09-28T00:13:13.662Z,22.16
2023-09-28T00:14:13.548Z,11.64
2023-09-28T00:15:13.563Z,6.36
2023-09-28T00:16:13.675Z,20.12
2023-09-28T00:17:13.638Z,8.52
2023-09-28T00:18:13.878Z,17.56
2023-09-28T00:19:13.027Z,7.88
2023-09-28T00:20:13.143Z,12.00
2023-09-28T00:21:13.307Z,9.12
2023-09-28T00:22:13.318Z,6.92
2023-09-28T00:23:13.339Z,9.44
2023-09-28T00:24:13.755Z,8.60
2023-09-28T00:25:13.751Z,9.68
2023-09-28T00:26:13.871Z,15.12
2023-09-28T00:27:12.956Z,8.32
2023-09-28T00:28:18.140Z,7.72
2023-09-28T00:29:12.971Z,11.52
2023-09-28T00:30:13.119Z,8.72
2023-09-28T00:31:13.180Z,7.64
2023-09-28T00:32:13.114Z,8.40
2023-09-28T00:33:13.294Z,22.16
2023-09-28T00:34:13.152Z,12.60
2023-09-28T00:35:13.300Z,7.64
2023-09-28T00:36:13.537Z,9.04
2023-09-28T00:37:13.537Z,12.16
2023-09-28T00:38:13.528Z,6.36
2023-09-28T00:39:13.363Z,13.24
2023-09-28T00:40:13.355Z,18.20
2023-09-28T00:41:13.323Z,22.80
2023-09-28T00:42:13.377Z,7.36
2023-09-28T00:43:13.294Z,9.16
2023-09-28T00:44:13.048Z,13.20
2023-09-28T00:45:13.091Z,8.56
2023-09-28T00:46:13.071Z,12.36
2023-09-28T00:47:13.163Z,12.80
2023-09-28T00:48:13.104Z,14.72
2023-09-28T00:49:13.017Z,11.64
2023-09-28T00:50:12.945Z,16.44
2023-09-28T00:51:12.927Z,11.76
2023-09-28T00:52:12.982Z,17.12
2023-09-28T00:53:13.081Z,22.28
2023-09-28T00:54:13.144Z,29.48
2023-09-28T00:55:13.025Z,16.72
2023-09-28T00:56:13.168Z,8.84
2023-09-28T00:57:13.081Z,11.00
2023-09-28T00:58:13.075Z,16.84
2023-09-28T00:59:12.905Z,7.00
2023-09-28T01:00:49.760Z,2.88
2023-09-28T01:01:01.749Z,4.44
2023-09-28T01:01:13.887Z,4.96
2023-09-28T01:02:12.870Z,10.64
2023-09-28T01:03:13.182Z,11.16
2023-09-28T01:04:13.540Z,10.08
2023-09-28T01:05:13.687Z,16.20
2023-09-28T01:06:13.483Z,12.56
2023-09-28T01:07:13.490Z,13.32
2023-09-28T01:08:13.754Z,5.84
2023-09-28T01:09:13.713Z,20.24
2023-09-28T01:10:14.113Z,17.12
2023-09-28T01:11:13.092Z,8.44
2023-09-28T01:12:13.431Z,6.44
2023-09-28T01:13:14.107Z,5.72
2023-09-28T01:14:13.661Z,4.80
2023-09-28T01:15:13.685Z,13.84
2023-09-28T01:16:13.988Z,11.28
2023-09-28T01:17:13.008Z,7.52
2023-09-28T01:18:12.908Z,15.24
2023-09-28T01:19:13.225Z,8.64
2023-09-28T01:20:13.223Z,8.40
2023-09-28T01:21:12.971Z,4.16
2023-09-28T01:22:13.117Z,11.16
2023-09-28T01:23:13.526Z,13.08
2023-09-28T01:24:13.957Z,5.56
2023-09-28T01:25:12.901Z,8.28
2023-09-28T01:26:13.032Z,8.16
2023-09-28T01:27:13.010Z,13.58
2023-09-28T01:28:12.995Z,5.40
2023-09-28T01:29:12.938Z,7.84
2023-09-28T01:30:13.100Z,12.48
2023-09-28T01:31:13.194Z,18.84
2023-09-28T01:32:13.262Z,14.68
2023-09-28T01:33:14.650Z,13.40
2023-09-28T01:34:13.501Z,10.16
2023-09-28T01:35:13.507Z,15.84
2023-09-28T01:36:13.581Z,17.72
2023-09-28T01:37:13.487Z,11.40
2023-09-28T01:38:13.456Z,13.32
2023-09-28T01:39:13.242Z,6.32
2023-09-28T01:40:13.096Z,3.16
2023-09-28T01:41:13.242Z,8.44
2023-09-28T01:42:13.246Z,6.68
2023-09-28T01:43:13.082Z,14.76
2023-09-28T01:44:12.914Z,17.56
2023-09-28T01:45:12.747Z,18.48
2023-09-28T01:46:13.982Z,24.20
2023-09-28T01:47:13.417Z,18.52
2023-09-28T01:48:13.420Z,21.32
2023-09-28T01:49:13.535Z,17.96
2023-09-28T01:50:13.563Z,15.32
2023-09-28T01:51:13.926Z,20.08
2023-09-28T01:52:13.079Z,9.16
2023-09-28T01:53:13.256Z,6.00
2023-09-28T01:54:13.110Z,10.28
2023-09-28T01:55:13.018Z,10.48
2023-09-28T01:56:12.900Z,13.44
2023-09-28T01:57:12.898Z,14.48
2023-09-28T01:58:13.091Z,18.76
2023-09-28T01:59:13.379Z,13.04
2023-09-28T02:00:13.571Z,12.44
2023-09-28T02:01:13.713Z,9.04
2023-09-28T02:02:13.946Z,10.96
2023-09-28T02:03:13.232Z,10.96
2023-09-28T02:04:13.237Z,10.80
2023-09-28T02:05:13.579Z,12.68
2023-09-28T02:06:13.599Z,12.60
2023-09-28T02:07:13.603Z,9.80
2023-09-28T02:08:13.556Z,10.96
2023-09-28T02:09:13.443Z,12.56
2023-09-28T02:10:13.560Z,6.52
2023-09-28T02:11:13.692Z,11.04
2023-09-28T02:12:13.492Z,8.72
2023-09-28T02:13:13.502Z,6.60
2023-09-28T02:14:13.517Z,7.76
2023-09-28T02:15:13.409Z,11.32
2023-09-28T02:16:13.510Z,12.92
2023-09-28T02:17:13.557Z,9.68
2023-09-28T02:18:13.419Z,10.80
2023-09-28T02:19:13.614Z,10.08
2023-09-28T02:20:13.638Z,10.04
2023-09-28T02:21:13.793Z,10.00
2023-09-28T02:22:14.005Z,13.80
2023-09-28T02:23:13.215Z,7.44
2023-09-28T02:24:13.281Z,8.96
2023-09-28T02:25:13.642Z,11.00
2023-09-28T02:26:13.720Z,6.48
2023-09-28T02:27:13.640Z,6.44
2023-09-28T02:28:13.526Z,10.88
2023-09-28T02:29:13.466Z,5.84
2023-09-28T02:30:13.288Z,7.96
2023-09-28T02:31:13.293Z,16.44
2023-09-28T02:32:13.496Z,11.24
2023-09-28T02:33:13.849Z,12.76
2023-09-28T02:34:13.855Z,6.56
2023-09-28T02:35:14.000Z,11.24
2023-09-28T02:36:13.103Z,7.72
2023-09-28T02:37:13.020Z,5.88
2023-09-28T02:38:13.304Z,6.16
2023-09-28T02:39:13.238Z,7.24
2023-09-28T02:40:13.315Z,3.76
2023-09-28T02:41:13.267Z,8.84
2023-09-28T02:42:13.552Z,14.84
2023-09-28T02:43:13.617Z,6.64
2023-09-28T02:44:13.731Z,3.88
2023-09-28T02:45:13.688Z,11.16
2023-09-28T02:46:13.567Z,13.72
2023-09-28T02:47:13.504Z,14.24
2023-09-28T02:48:13.438Z,12.04
2023-09-28T02:49:13.595Z,6.96
2023-09-28T02:50:13.700Z,8.24
2023-09-28T02:51:13.674Z,8.32
2023-09-28T02:52:13.636Z,13.04
2023-09-28T02:53:13.607Z,11.00
2023-09-28T02:54:13.763Z,7.72
2023-09-28T02:55:13.631Z,11.08
2023-09-28T02:56:13.726Z,10.96
2023-09-28T02:57:13.778Z,18.16
2023-09-28T02:58:13.930Z,7.60
2023-09-28T02:59:12.867Z,7.84
2023-09-28T03:00:15.011Z,4.08
2023-09-28T03:01:13.086Z,9.60
2023-09-28T03:02:13.096Z,19.04
2023-09-28T03:03:13.107Z,8.44
2023-09-28T03:04:13.121Z,15.28
2023-09-28T03:05:13.224Z,16.16
2023-09-28T03:06:18.164Z,11.08
2023-09-28T03:07:13.231Z,8.84
2023-09-28T03:08:13.421Z,12.60
2023-09-28T03:09:13.498Z,9.88
2023-09-28T03:10:13.522Z,10.64
2023-09-28T03:11:13.627Z,10.00
2023-09-28T03:12:13.818Z,10.36
2023-09-28T03:13:13.135Z,10.80
2023-09-28T03:14:13.101Z,6.20
2023-09-28T03:15:13.352Z,5.76
2023-09-28T03:16:13.271Z,4.48
2023-09-28T03:17:13.367Z,5.72
2023-09-28T03:18:13.230Z,4.24
2023-09-28T03:19:13.104Z,6.12
2023-09-28T03:20:13.208Z,4.84
2023-09-28T03:21:13.561Z,13.08
2023-09-28T03:22:13.909Z,7.80
2023-09-28T03:23:13.144Z,1.92
2023-09-28T03:24:13.142Z,7.04
2023-09-28T03:25:13.272Z,12.32
2023-09-28T03:26:13.245Z,5.36
2023-09-28T03:27:13.752Z,4.00
2023-09-28T03:28:13.607Z,7.92
2023-09-28T03:29:13.647Z,6.48
2023-09-28T03:30:13.556Z,5.36
2023-09-28T03:31:13.574Z,14.20
2023-09-28T03:32:13.568Z,14.00
2023-09-28T03:33:13.571Z,10.52
2023-09-28T03:34:13.697Z,11.56
2023-09-28T03:35:13.780Z,15.68
2023-09-28T03:36:13.042Z,4.08
2023-09-28T03:37:13.254Z,5.32
2023-09-28T03:38:13.328Z,7.96
2023-09-28T03:39:13.541Z,8.28
2023-09-28T03:40:13.722Z,15.56
2023-09-28T03:41:13.944Z,16.48
2023-09-28T03:42:13.002Z,8.12
2023-09-28T03:43:13.132Z,16.04
2023-09-28T03:44:13.098Z,4.96
2023-09-28T03:45:13.033Z,11.60
2023-09-28T03:46:13.082Z,13.44
2023-09-28T03:47:13.205Z,15.48
2023-09-28T03:48:13.335Z,10.88
2023-09-28T03:49:13.285Z,8.72
2023-09-28T03:50:13.092Z,12.64
2023-09-28T03:51:12.921Z,12.88
2023-09-28T03:52:12.872Z,7.28
2023-09-28T03:53:13.152Z,5.92
2023-09-28T03:54:13.459Z,5.76
2023-09-28T03:55:13.386Z,10.88
2023-09-28T03:56:13.303Z,12.04
2023-09-28T03:57:13.341Z,13.96
2023-09-28T03:58:13.349Z,10.80
2023-09-28T03:59:13.516Z,4.64
2023-09-28T04:00:13.967Z,4.84
2023-09-28T04:01:12.983Z,7.52
2023-09-28T04:02:12.799Z,3.12
2023-09-28T04:03:13.876Z,4.56
2023-09-28T04:04:14.003Z,12.84
2023-09-28T04:05:13.125Z,5.96
2023-09-28T04:06:13.238Z,9.16
2023-09-28T04:07:13.025Z,4.80
2023-09-28T04:08:13.225Z,10.64
2023-09-28T04:09:13.203Z,10.68
2023-09-28T04:10:13.289Z,9.28
2023-09-28T04:11:13.514Z,6.76
2023-09-28T04:12:13.354Z,3.08
2023-09-28T04:13:13.343Z,0.64
2023-09-28T04:14:13.697Z,6.48
2023-09-28T04:15:13.905Z,6.36
2023-09-28T04:16:13.026Z,2.60
2023-09-28T04:17:13.905Z,5.08
2023-09-28T04:18:13.844Z,3.56
2023-09-28T04:19:14.067Z,5.12
2023-09-28T04:20:13.088Z,2.88
2023-09-28T04:21:13.213Z,4.88
2023-09-28T04:22:13.291Z,1.36
2023-09-28T04:23:13.235Z,4.48
2023-09-28T04:24:13.080Z,8.48
2023-09-28T04:25:12.844Z,6.72
2023-09-28T04:26:13.950Z,8.96
2023-09-28T04:27:12.875Z,6.28
2023-09-28T04:28:14.001Z,6.20
2023-09-28T04:29:12.904Z,3.64
2023-09-28T04:30:12.654Z,5.16
2023-09-28T04:31:14.119Z,7.44
2023-09-28T04:32:13.065Z,2.20
2023-09-28T04:33:13.005Z,3.64
2023-09-28T04:34:12.767Z,0.00
2023-09-28T04:35:13.843Z,0.00
2023-09-28T04:36:14.266Z,3.40
2023-09-28T04:37:13.511Z,0.60
2023-09-28T04:38:13.397Z,4.84
2023-09-28T04:39:13.310Z,0.60
2023-09-28T04:40:13.300Z,1.32
2023-09-28T04:41:13.205Z,0.28
2023-09-28T04:42:16.037Z,0.32
2023-09-28T04:43:13.467Z,3.88
2023-09-28T04:44:13.590Z,3.24
2023-09-28T04:45:13.588Z,6.00
2023-09-28T04:46:13.556Z,1.60
2023-09-28T04:47:13.513Z,9.32
2023-09-28T04:48:13.489Z,4.44
2023-09-28T04:49:13.364Z,2.96
2023-09-28T04:50:13.434Z,3.48
2023-09-28T04:51:13.632Z,8.08
2023-09-28T04:52:13.467Z,0.00
2023-09-28T04:53:13.861Z,0.36
2023-09-28T04:54:12.813Z,0.96
2023-09-28T04:55:13.800Z,6.56
2023-09-28T04:56:13.661Z,1.76
2023-09-28T04:57:13.543Z,0.52
2023-09-28T04:58:13.542Z,0.80
2023-09-28T04:59:13.711Z,0.00
2023-09-28T05:00:13.833Z,0.00
2023-09-28T05:02:14.122Z,0.04
2023-09-28T05:03:12.894Z,4.04
2023-09-28T05:04:13.142Z,1.16
2023-09-28T05:05:13.320Z,2.76
2023-09-28T05:06:13.492Z,4.04
2023-09-28T05:07:13.668Z,2.12
2023-09-28T05:08:13.720Z,2.48
2023-09-28T05:09:14.040Z,1.60
2023-09-28T05:10:12.997Z,4.80
2023-09-28T05:11:13.128Z,2.56
2023-09-28T05:12:13.241Z,0.40
2023-09-28T05:13:13.130Z,3.72
2023-09-28T05:14:12.905Z,5.20
2023-09-28T05:15:13.010Z,5.36
2023-09-28T05:16:13.203Z,5.24
2023-09-28T05:17:13.418Z,2.00
2023-09-28T05:18:13.531Z,0.96
2023-09-28T05:19:13.446Z,1.84
2023-09-28T05:20:13.575Z,0.00
2023-09-28T05:21:13.738Z,0.00
2023-09-28T05:22:13.758Z,0.00
2023-09-28T05:23:14.066Z,0.00
2023-09-28T05:24:13.092Z,0.00
2023-09-28T05:25:13.212Z,1.52
2023-09-28T05:26:13.110Z,1.16
2023-09-28T05:27:13.185Z,3.92
2023-09-28T05:28:13.335Z,1.64
2023-09-28T05:29:13.297Z,0.76
2023-09-28T05:30:13.418Z,1.44
2023-09-28T05:31:13.418Z,5.12
2023-09-28T05:32:13.993Z,6.68
2023-09-28T05:33:12.985Z,9.60
2023-09-28T05:34:13.075Z,5.88
2023-09-28T05:35:13.366Z,5.40
2023-09-28T05:36:13.269Z,4.48
2023-09-28T05:37:13.451Z,2.88
2023-09-28T05:38:13.507Z,5.60
2023-09-28T05:39:13.364Z,1.28
2023-09-28T05:40:13.405Z,2.64
2023-09-28T05:41:13.647Z,4.80
2023-09-28T05:42:13.625Z,0.00
2023-09-28T05:43:13.925Z,0.00
2023-09-28T05:44:14.389Z,0.00
2023-09-28T05:45:14.064Z,0.00
2023-09-28T05:46:12.917Z,2.00
2023-09-28T05:47:13.066Z,2.84
2023-09-28T05:48:13.118Z,3.08
2023-09-28T05:49:12.964Z,5.76
2023-09-28T05:50:13.060Z,12.12
2023-09-28T05:51:13.440Z,7.92
2023-09-28T05:52:13.309Z,6.60
2023-09-28T05:53:13.217Z,16.72
2023-09-28T05:54:13.066Z,6.68
2023-09-28T05:55:13.165Z,5.28
2023-09-28T05:56:13.340Z,0.96
2023-09-28T05:57:13.362Z,8.96
2023-09-28T05:58:13.332Z,3.12
2023-09-28T05:59:13.243Z,8.36
2023-09-28T06:00:13.149Z,2.08
2023-09-28T06:01:13.394Z,16.80
2023-09-28T06:02:13.515Z,6.64
2023-09-28T06:03:13.598Z,10.48
2023-09-28T06:04:13.390Z,7.16
2023-09-28T06:05:13.303Z,4.24
2023-09-28T06:06:14.419Z,4.16
2023-09-28T06:07:13.411Z,4.36
2023-09-28T06:08:13.444Z,6.96
2023-09-28T06:09:13.496Z,9.44
2023-09-28T06:10:13.537Z,10.04
2023-09-28T06:11:13.428Z,3.00
2023-09-28T06:12:13.527Z,3.64
2023-09-28T06:13:13.528Z,8.28
2023-09-28T06:14:13.833Z,4.24
2023-09-28T06:15:13.949Z,8.36
2023-09-28T06:16:13.010Z,8.16
2023-09-28T06:17:13.048Z,10.76
2023-09-28T06:18:13.044Z,12.68
2023-09-28T06:19:13.142Z,11.12
2023-09-28T06:20:13.442Z,12.56
2023-09-28T06:21:13.451Z,15.64
2023-09-28T06:22:13.401Z,11.96
2023-09-28T06:23:13.617Z,10.00
2023-09-28T06:24:13.678Z,8.50
2023-09-28T06:25:13.755Z,5.52
2023-09-28T06:26:19.874Z,12.52
2023-09-28T06:27:13.253Z,11.21
2023-09-28T06:28:13.232Z,9.64
2023-09-28T06:29:13.347Z,7.30
2023-09-28T06:30:13.815Z,10.04
2023-09-28T06:31:13.860Z,6.96
2023-09-28T06:32:13.876Z,15.56
2023-09-28T06:33:12.947Z,7.76
2023-09-28T06:34:12.764Z,8.33
2023-09-28T06:35:13.696Z,13.04
2023-09-28T06:36:23.013Z,11.32
2023-09-28T06:37:13.854Z,9.60
2023-09-28T06:38:13.675Z,5.72
2023-09-28T06:39:13.434Z,1.72
2023-09-28T06:40:13.717Z,3.20
2023-09-28T06:41:13.752Z,0.56
2023-09-28T06:42:28.627Z,2.20
2023-09-28T06:43:13.756Z,1.40
2023-09-28T06:44:13.771Z,5.64
2023-09-28T06:45:13.615Z,3.76
2023-09-28T06:46:13.904Z,1.96
2023-09-28T06:47:12.934Z,2.24
2023-09-28T06:48:20.015Z,3.84
2023-09-28T06:49:13.051Z,7.40
2023-09-28T06:50:12.890Z,1.16
2023-09-28T06:51:13.909Z,0.00
2023-09-28T06:52:13.200Z,1.76
2023-09-28T06:53:13.466Z,2.64
2023-09-28T06:54:13.586Z,10.96
2023-09-28T06:55:13.595Z,3.44
2023-09-28T06:56:15.096Z,4.28
2023-09-28T06:57:13.397Z,0.00
2023-09-28T06:58:13.584Z,6.84
2023-09-28T07:01:13.521Z,8.24
2023-09-28T07:03:14.657Z,0.08
2023-09-28T07:06:13.417Z,15.36
2023-09-28T07:09:13.450Z,5.46
2023-09-28T07:10:49.028Z,11.40
2023-09-28T07:11:12.983Z,13.44
2023-09-28T07:12:12.846Z,7.92
2023-09-28T07:13:14.070Z,13.84
2023-09-28T07:14:13.197Z,21.63
2023-09-28T07:15:51.170Z,14.64
2023-09-28T07:16:13.841Z,13.26
2023-09-28T07:17:19.019Z,20.52
2023-09-28T07:18:13.226Z,7.84
2023-09-28T07:19:13.866Z,9.60
2023-09-28T07:20:13.614Z,6.68
2023-09-28T07:21:13.738Z,4.08
2023-09-28T07:22:13.791Z,6.72
2023-09-28T07:23:13.566Z,13.12
2023-09-28T07:24:19.530Z,6.60
2023-09-28T07:25:13.543Z,1.25
2023-09-28T07:26:13.621Z,16.12
2023-09-28T07:27:13.418Z,4.72
2023-09-28T07:28:13.402Z,16.36
2023-09-28T07:29:13.537Z,14.80
2023-09-28T07:30:13.552Z,15.28
2023-09-28T07:31:13.866Z,16.88
2023-09-28T07:32:13.969Z,5.04
2023-09-28T07:33:13.439Z,9.40
2023-09-28T07:34:13.507Z,7.72
2023-09-28T07:35:13.709Z,10.68
2023-09-28T07:36:13.859Z,18.48
2023-09-28T07:37:13.894Z,5.64
2023-09-28T07:38:14.145Z,13.40
2023-09-28T07:39:13.138Z,20.00
2023-09-28T07:40:12.946Z,5.68
2023-09-28T07:41:12.991Z,5.76
2023-09-28T07:42:15.015Z,6.64
2023-09-28T07:43:13.184Z,15.60
2023-09-28T07:44:13.302Z,4.80
2023-09-28T07:45:13.325Z,14.96
2023-09-28T07:46:13.764Z,20.56
2023-09-28T07:47:14.034Z,12.32
2023-09-28T07:48:18.141Z,12.44
2023-09-28T07:50:17.265Z,22.32
2023-09-28T07:51:13.916Z,17.72
2023-09-28T07:53:13.761Z,25.44
2023-09-28T07:54:13.684Z,10.64
2023-09-28T07:55:13.975Z,7.68
2023-09-28T07:56:12.942Z,15.41
2023-09-28T07:57:28.259Z,27.12
2023-09-28T07:59:13.598Z,7.92
2023-09-28T08:00:13.680Z,9.40
2023-09-28T08:01:13.697Z,7.80
2023-09-28T08:02:14.585Z,6.52
2023-09-28T08:03:13.839Z,6.32
2023-09-28T08:04:12.873Z,9.40
2023-09-28T08:05:13.158Z,3.00
2023-09-28T08:06:18.339Z,8.60
2023-09-28T08:07:13.482Z,9.80
2023-09-28T08:08:16.953Z,2.28
2023-09-28T08:09:13.375Z,0.16
2023-09-28T08:10:13.302Z,1.08
2023-09-28T08:11:13.328Z,4.88
2023-09-28T08:12:13.342Z,21.28
2023-09-28T08:13:14.529Z,19.36
2023-09-28T08:14:15.830Z,23.56
2023-09-28T08:15:23.588Z,15.64
2023-09-28T08:16:13.396Z,19.88
2023-09-28T08:17:13.248Z,20.72
2023-09-28T08:18:13.332Z,12.24
2023-09-28T08:19:13.371Z,24.92
2023-09-28T08:20:13.531Z,21.76
2023-09-28T08:21:13.581Z,19.48
2023-09-28T08:22:13.688Z,12.76
2023-09-28T08:23:13.823Z,11.96
2023-09-28T08:24:13.712Z,15.48
2023-09-28T08:25:13.902Z,30.16
2023-09-28T08:26:13.213Z,24.00
2023-09-28T08:27:13.230Z,18.12
2023-09-28T08:28:13.060Z,25.64
2023-09-28T08:29:13.025Z,21.12
2023-09-28T08:30:13.258Z,21.16
2023-09-28T08:31:13.464Z,14.56
2023-09-28T08:32:13.332Z,11.20
2023-09-28T08:33:13.469Z,19.12
2023-09-28T08:34:17.189Z,15.24
2023-09-28T08:35:13.257Z,11.40
2023-09-28T08:36:13.375Z,6.56
2023-09-28T08:37:13.473Z,19.72
2023-09-28T08:38:15.109Z,16.80
2023-09-28T08:39:12.975Z,25.56
2023-09-28T08:40:12.888Z,20.64
2023-09-28T08:41:13.058Z,15.80
2023-09-28T08:42:13.049Z,20.76
2023-09-28T08:43:13.267Z,13.64
2023-09-28T08:44:13.117Z,14.48
2023-09-28T08:45:13.483Z,15.80
2023-09-28T08:46:13.537Z,19.72
2023-09-28T08:47:13.815Z,16.52
2023-09-28T08:48:13.699Z,16.12
2023-09-28T08:49:13.621Z,13.12
2023-09-28T08:50:13.765Z,12.24
2023-09-28T08:51:12.875Z,7.68
2023-09-28T08:52:13.042Z,8.52
2023-09-28T08:53:13.216Z,13.44
2023-09-28T08:54:13.275Z,14.68
2023-09-28T08:55:13.280Z,9.92
2023-09-28T08:56:13.125Z,8.12
2023-09-28T08:57:13.455Z,14.40
2023-09-28T08:58:13.550Z,20.88
2023-09-28T08:59:13.878Z,15.16
2023-09-28T09:00:12.973Z,20.92
2023-09-28T09:01:13.256Z,28.32
2023-09-28T09:02:13.159Z,25.44
2023-09-28T09:03:13.395Z,31.16
2023-09-28T09:04:13.597Z,19.92
2023-09-28T09:05:18.701Z,19.92
2023-09-28T09:06:13.928Z,14.24
2023-09-28T09:07:13.196Z,11.12
2023-09-28T09:08:13.605Z,27.16
2023-09-28T09:09:13.816Z,28.44
2023-09-28T09:10:12.813Z,16.48
2023-09-28T09:11:14.789Z,12.72
2023-09-28T09:12:12.943Z,11.48
2023-09-28T09:13:12.930Z,19.16
2023-09-28T09:14:13.059Z,13.68
2023-09-28T09:15:13.138Z,18.96
2023-09-28T09:16:13.046Z,20.88
2023-09-28T09:17:13.524Z,13.48
2023-09-28T09:18:13.823Z,9.52
2023-09-28T09:19:13.867Z,13.88
2023-09-28T09:20:12.908Z,11.72
2023-09-28T09:21:12.843Z,8.76
2023-09-28T09:22:13.802Z,7.60
2023-09-28T09:23:12.942Z,11.20
2023-09-28T09:24:13.101Z,13.96
2023-09-28T09:25:14.043Z,16.32
2023-09-28T09:26:13.113Z,6.76
2023-09-28T09:27:13.277Z,12.08
2023-09-28T09:28:13.075Z,17.80
2023-09-28T09:29:13.009Z,11.96
2023-09-28T09:30:13.207Z,15.20
2023-09-28T09:31:13.173Z,14.44
2023-09-28T09:32:13.350Z,14.40
2023-09-28T09:33:13.360Z,13.28
2023-09-28T09:34:13.411Z,11.84
2023-09-28T09:35:13.746Z,11.32
2023-09-28T09:36:12.974Z,14.68
2023-09-28T09:37:13.012Z,26.68
2023-09-28T09:38:13.049Z,18.44
2023-09-28T09:39:12.985Z,28.44
2023-09-28T09:40:13.065Z,14.88
2023-09-28T09:41:13.014Z,13.16
2023-09-28T09:42:12.818Z,13.28
2023-09-28T09:43:13.806Z,15.04
2023-09-28T09:44:13.777Z,21.92
2023-09-28T09:45:13.890Z,13.12
2023-09-28T09:46:12.849Z,18.60
2023-09-28T09:47:14.012Z,11.48
2023-09-28T09:48:12.976Z,18.44
2023-09-28T09:49:12.967Z,9.40
2023-09-28T09:50:12.994Z,11.12
2023-09-28T09:51:13.447Z,18.48
2023-09-28T09:52:13.708Z,14.40
2023-09-28T09:53:14.532Z,12.84
2023-09-28T09:54:13.869Z,7.60
2023-09-28T09:55:13.685Z,14.81
2023-09-28T09:56:14.011Z,11.60
2023-09-28T09:57:13.301Z,19.84
2023-09-28T09:58:13.582Z,6.12
2023-09-28T09:59:13.825Z,7.56
2023-09-28T10:00:13.788Z,20.56
2023-09-28T10:01:13.851Z,23.44
2023-09-28T10:02:12.781Z,27.08
2023-09-28T10:03:13.854Z,20.40
2023-09-28T10:04:13.981Z,23.08
2023-09-28T10:05:13.052Z,20.88
2023-09-28T10:06:13.014Z,20.40
2023-09-28T10:07:13.174Z,10.36
2023-09-28T10:08:13.098Z,13.40
2023-09-28T10:09:13.200Z,19.20
2023-09-28T10:10:13.209Z,15.92
2023-09-28T10:11:13.304Z,22.20
2023-09-28T10:12:13.587Z,18.32
2023-09-28T10:13:13.800Z,10.88
2023-09-28T10:14:14.015Z,12.76
2023-09-28T10:15:12.980Z,12.44
2023-09-28T10:16:12.765Z,19.64
2023-09-28T10:17:12.919Z,15.64
2023-09-28T10:18:13.006Z,5.36
2023-09-28T10:19:12.954Z,4.36
2023-09-28T10:20:13.307Z,10.00
2023-09-28T10:21:13.514Z,14.20
2023-09-28T10:22:13.393Z,11.32
2023-09-28T10:23:13.716Z,10.56
2023-09-28T10:24:13.692Z,8.76
2023-09-28T10:25:13.770Z,11.72
2023-09-28T10:26:13.867Z,11.48
2023-09-28T10:27:13.293Z,8.64
2023-09-28T10:28:13.346Z,9.68
2023-09-28T10:29:13.622Z,11.04
2023-09-28T10:30:13.827Z,21.48
2023-09-28T10:31:15.476Z,9.84
2023-09-28T10:32:13.725Z,1.84
2023-09-28T10:33:13.897Z,7.04
2023-09-28T10:34:12.954Z,14.00
2023-09-28T10:35:12.930Z,10.52
2023-09-28T10:36:13.086Z,7.16
2023-09-28T10:37:13.017Z,4.80
2023-09-28T10:38:13.276Z,7.80
2023-09-28T10:39:13.124Z,5.32
2023-09-28T10:40:13.370Z,6.08
2023-09-28T10:41:13.508Z,4.68
2023-09-28T10:42:13.513Z,6.24
2023-09-28T10:43:13.409Z,3.64
2023-09-28T10:44:13.100Z,6.08
2023-09-28T10:45:13.061Z,17.60
2023-09-28T10:46:12.957Z,10.68
2023-09-28T10:47:13.133Z,16.08
2023-09-28T10:48:13.602Z,15.72
2023-09-28T10:49:13.780Z,18.44
2023-09-28T10:50:13.621Z,19.88
2023-09-28T10:51:13.555Z,20.44
2023-09-28T10:52:13.585Z,20.60
2023-09-28T10:53:13.705Z,20.64
2023-09-28T10:54:13.684Z,8.20
2023-09-28T10:55:13.591Z,7.88
2023-09-28T10:56:13.759Z,12.08
2023-09-28T10:57:13.811Z,10.92
2023-09-28T10:58:14.533Z,7.20
2023-09-28T10:59:13.533Z,10.20
2023-09-28T11:00:13.654Z,1.96
2023-09-28T11:01:12.706Z,2.56
2023-09-28T11:02:13.763Z,8.12
2023-09-28T11:03:14.050Z,8.28
2023-09-28T11:04:13.246Z,9.60
2023-09-28T11:05:13.712Z,10.32
2023-09-28T11:06:13.410Z,14.80
2023-09-28T11:07:13.543Z,11.44
2023-09-28T11:08:13.781Z,10.96
2023-09-28T11:09:14.069Z,20.52
2023-09-28T11:10:13.275Z,14.84
2023-09-28T11:11:13.647Z,8.92
2023-09-28T11:12:13.683Z,16.80
2023-09-28T11:13:13.721Z,12.52
2023-09-28T11:14:13.802Z,19.12
2023-09-28T11:15:13.731Z,14.72
2023-09-28T11:16:13.917Z,15.44
2023-09-28T11:17:13.043Z,17.40
2023-09-28T11:18:13.304Z,20.60
2023-09-28T11:19:13.547Z,12.56
2023-09-28T11:20:13.806Z,12.32
2023-09-28T11:21:12.890Z,12.36
2023-09-28T11:22:12.835Z,14.76
2023-09-28T11:23:14.181Z,4.12
2023-09-28T11:24:13.342Z,14.76
2023-09-28T11:25:17.852Z,8.16
2023-09-28T11:26:12.869Z,7.32
2023-09-28T11:27:12.873Z,7.80
2023-09-28T11:28:13.974Z,11.04
2023-09-28T11:29:13.094Z,4.80
2023-09-28T11:30:12.969Z,4.16
2023-09-28T11:31:12.917Z,10.24
2023-09-28T11:32:13.176Z,12.64
2023-09-28T11:33:13.272Z,9.28
2023-09-28T11:34:12.996Z,13.88
2023-09-28T11:35:13.004Z,11.56
2023-09-28T11:36:13.004Z,10.80
2023-09-28T11:37:12.908Z,14.96
2023-09-28T11:38:12.736Z,15.76
2023-09-28T11:39:13.751Z,16.48
2023-09-28T11:40:14.085Z,14.84
2023-09-28T11:41:13.103Z,13.56
2023-09-28T11:42:13.299Z,8.48
2023-09-28T11:43:13.383Z,20.24
2023-09-28T11:44:13.774Z,15.68
2023-09-28T11:45:13.727Z,13.52
2023-09-28T11:46:13.674Z,17.12
2023-09-28T11:47:13.744Z,11.80
2023-09-28T11:48:13.920Z,14.48
2023-09-28T11:49:12.943Z,21.92
2023-09-28T11:50:13.223Z,9.40
2023-09-28T11:51:13.081Z,11.80
2023-09-28T11:52:12.956Z,11.12
2023-09-28T11:53:13.111Z,12.88
2023-09-28T11:54:13.129Z,5.96
2023-09-28T11:55:12.946Z,12.52
2023-09-28T11:56:13.014Z,14.84
2023-09-28T11:57:13.326Z,10.92
2023-09-28T11:58:13.375Z,11.52
2023-09-28T11:59:13.926Z,13.52
2023-09-28T12:00:13.148Z,11.08
2023-09-28T12:01:13.342Z,10.20
2023-09-28T12:02:13.396Z,7.36
2023-09-28T12:03:13.775Z,7.08
2023-09-28T12:04:13.937Z,8.80
2023-09-28T12:05:13.174Z,3.72
2023-09-28T12:06:13.353Z,7.08
2023-09-28T12:07:13.267Z,7.24
2023-09-28T12:08:13.244Z,14.08
2023-09-28T12:09:13.224Z,10.36
2023-09-28T12:10:13.339Z,11.92
2023-09-28T12:11:13.479Z,5.84
2023-09-28T12:12:13.381Z,5.64
2023-09-28T12:13:13.230Z,9.28
2023-09-28T12:14:13.274Z,16.53
2023-09-28T12:15:13.458Z,14.20
2023-09-28T12:16:13.437Z,10.12
2023-09-28T12:17:13.619Z,3.04
2023-09-28T12:18:13.564Z,10.28
2023-09-28T12:19:13.609Z,8.16
2023-09-28T12:20:13.655Z,11.00
2023-09-28T12:21:13.807Z,10.56
2023-09-28T12:22:13.661Z,7.52
2023-09-28T12:23:13.620Z,9.52
2023-09-28T12:24:13.594Z,12.08
2023-09-28T12:25:13.623Z,15.56
2023-09-28T12:26:13.578Z,16.84
2023-09-28T12:27:13.688Z,11.96
2023-09-28T12:28:13.566Z,9.24
2023-09-28T12:29:13.434Z,3.76
2023-09-28T12:30:13.539Z,11.52
2023-09-28T12:31:13.752Z,12.92
2023-09-28T12:32:13.818Z,11.68
2023-09-28T12:33:13.813Z,18.72
2023-09-28T12:34:13.640Z,25.92
2023-09-28T12:35:13.712Z,23.16
2023-09-28T12:36:13.947Z,14.60
2023-09-28T12:37:13.017Z,14.72
2023-09-28T12:38:13.242Z,11.28
2023-09-28T12:39:13.092Z,7.76
2023-09-28T12:40:13.163Z,11.76
2023-09-28T12:41:13.604Z,20.44
2023-09-28T12:42:13.680Z,16.48
2023-09-28T12:43:13.793Z,13.84
2023-09-28T12:44:13.868Z,16.24
2023-09-28T12:45:13.746Z,19.44
2023-09-28T12:46:13.652Z,16.76
2023-09-28T12:47:13.951Z,22.68
2023-09-28T12:48:13.237Z,14.68
2023-09-28T12:49:13.264Z,16.56
2023-09-28T12:50:13.291Z,16.20
2023-09-28T12:51:13.266Z,15.64
2023-09-28T12:52:13.239Z,13.64
2023-09-28T12:53:13.236Z,15.92
2023-09-28T12:54:14.304Z,14.88
2023-09-28T12:55:15.836Z,14.08
2023-09-28T12:56:13.144Z,9.52
2023-09-28T12:57:13.009Z,9.00
2023-09-28T12:58:13.137Z,17.52
2023-09-28T12:59:13.212Z,16.92
2023-09-28T13:00:13.277Z,9.20
2023-09-28T13:01:13.251Z,8.88
2023-09-28T13:02:13.283Z,21.20
2023-09-28T13:03:13.291Z,22.76
2023-09-28T13:04:13.723Z,23.72
2023-09-28T13:05:14.175Z,19.64
2023-09-28T13:06:13.605Z,17.76
2023-09-28T13:07:13.608Z,17.28
2023-09-28T13:08:14.852Z,21.36
2023-09-28T13:09:12.928Z,16.28
2023-09-28T13:10:13.109Z,14.80
2023-09-28T13:11:13.023Z,12.64
2023-09-28T13:12:13.456Z,11.24
2023-09-28T13:13:13.481Z,13.76
2023-09-28T13:14:13.561Z,17.40